Aviation Digital Data Service (ADDS)

Output produced by METARs form (1340 UTC 19 April 2018)
found at http://aviationweather.gov/adds/metars/
 
KDAN 191134Z 1912/2012 28010KT P6SM BKN060 
     FM191500 31012G25KT P6SM FEW040 
     FM200100 31010KT P6SM SKC 
     FM200700 33006KT P6SM SKC